Time;durP1;ratioP1;P1;durP2;ratioP2;P2;SDS_P1;SDS_P2;PMS_P1;PMS_P2;Temp;Humidity;BMP_temperature;BMP_pressure;BME280_temperature;BME280_humidity;BME280_pressure;Samples;Min_cycle;Max_cycle;Signal;HPM_P1;HPM_P2
2022/05/03 00:00:17;;;;;;;1.00;0.30;;;10.80;56.70;;;;;;4999034;28;20042;-84
2022/05/03 00:02:54;;;;;;;1.05;0.20;;;10.70;56.80;;;;;;4999112;28;20046;-85
2022/05/03 00:05:42;;;;;;;0.60;0.20;;;10.70;57.00;;;;;;5014817;28;20077;-84
2022/05/03 00:08:21;;;;;;;0.60;0.20;;;10.70;57.10;;;;;;4998831;28;20046;-84
2022/05/03 00:11:07;;;;;;;0.47;0.20;;;10.70;57.10;;;;;;5016126;28;20046;-84
2022/05/03 00:13:43;;;;;;;0.40;0.15;;;10.70;57.20;;;;;;5016431;28;20053;-84
2022/05/03 00:16:13;;;;;;;0.43;0.20;;;10.60;57.20;;;;;;5022434;28;20050;-83
2022/05/03 00:18:43;;;;;;;0.90;0.40;;;10.60;57.30;;;;;;5018291;28;20046;-84
2022/05/03 00:21:12;;;;;;;0.60;0.20;;;10.60;57.50;;;;;;5019376;28;20081;-84
2022/05/03 00:23:39;;;;;;;0.68;0.32;;;10.60;57.50;;;;;;5015219;28;20045;-84
2022/05/03 00:26:07;;;;;;;0.75;0.22;;;10.60;57.60;;;;;;4972905;28;20042;-84
2022/05/03 00:28:36;;;;;;;0.90;0.30;;;10.60;57.70;;;;;;4998863;28;20089;-84
2022/05/03 00:31:04;;;;;;;1.20;0.50;;;10.60;57.80;;;;;;5009846;28;20084;-84
2022/05/03 00:33:33;;;;;;;0.32;0.20;;;10.50;57.90;;;;;;5011700;28;20077;-84
2022/05/03 00:36:00;;;;;;;0.60;0.20;;;10.50;58.00;;;;;;4979299;28;20073;-84
2022/05/03 00:38:34;;;;;;;0.98;0.30;;;10.40;58.00;;;;;;4998316;28;20134;-84
2022/05/03 00:41:05;;;;;;;1.02;0.30;;;10.40;58.10;;;;;;4998673;28;20133;-83
2022/05/03 00:44:55;;;;;;;0.98;0.30;;;10.50;58.80;;;;;;4997287;28;20057;-84
2022/05/03 00:46:58;;;;;;;0.43;0.20;;;10.40;58.30;;;;;;5003362;28;20450;-84
2022/05/03 00:49:53;;;;;;;1.05;0.40;;;10.30;58.50;;;;;;5013983;28;20494;-83
2022/05/03 00:52:39;;;;;;;1.73;0.30;;;10.30;58.60;;;;;;4990373;28;20076;-83
2022/05/03 00:55:21;;;;;;;0.60;0.20;;;10.30;58.70;;;;;;4985536;28;20154;-83
2022/05/03 00:58:10;;;;;;;0.70;0.25;;;10.20;58.70;;;;;;4989881;28;20042;-83
2022/05/03 01:00:51;;;;;;;1.25;0.20;;;10.20;58.90;;;;;;5000362;28;20045;-83
2022/05/03 01:03:39;;;;;;;1.55;0.50;;;10.20;59.00;;;;;;4992601;28;20057;-84
2022/05/03 01:06:40;;;;;;;0.75;0.30;;;10.20;59.10;;;;;;4998225;28;20074;-84
2022/05/03 01:09:11;;;;;;;1.10;0.40;;;10.20;59.20;;;;;;4991027;28;20041;-84
2022/05/03 01:11:52;;;;;;;0.70;0.22;;;10.10;59.20;;;;;;4997060;28;20141;-86
2022/05/03 01:14:49;;;;;;;1.30;0.50;;;10.10;59.30;;;;;;5013925;28;20133;-86
2022/05/03 01:17:37;;;;;;;0.90;0.30;;;10.10;59.40;;;;;;4994085;28;20057;-83
2022/05/03 01:20:06;;;;;;;0.63;0.20;;;10.10;59.50;;;;;;5009266;28;20073;-83
2022/05/03 01:22:52;;;;;;;0.98;0.40;;;10.00;59.60;;;;;;4997146;28;20482;-83
2022/05/03 01:25:42;;;;;;;1.17;0.52;;;10.00;59.90;;;;;;5031507;28;20061;-84
2022/05/03 01:28:15;;;;;;;0.98;0.40;;;10.00;59.80;;;;;;5005900;28;20047;-83
2022/05/03 01:30:49;;;;;;;0.70;0.40;;;10.00;59.90;;;;;;5016400;28;20076;-83
2022/05/03 01:33:38;;;;;;;0.90;0.38;;;10.00;60.00;;;;;;5000501;28;20080;-83
2022/05/03 01:36:08;;;;;;;1.58;0.40;;;9.90;60.10;;;;;;5016280;28;20038;-83
2022/05/03 01:39:05;;;;;;;0.85;0.30;;;9.90;60.20;;;;;;5016692;28;20052;-83
2022/05/03 01:41:57;;;;;;;1.13;0.63;;;9.80;60.20;;;;;;5003291;28;20580;-84
2022/05/03 01:44:38;;;;;;;0.98;0.50;;;9.80;60.40;;;;;;5005401;28;20045;-83
2022/05/03 01:47:16;;;;;;;1.40;0.60;;;9.80;60.90;;;;;;5013244;28;20053;-84
2022/05/03 01:50:18;;;;;;;1.10;0.25;;;9.70;60.70;;;;;;5013400;28;20037;-83
2022/05/03 01:53:07;;;;;;;0.75;0.30;;;9.70;60.80;;;;;;5000169;28;20045;-83
2022/05/03 01:55:53;;;;;;;1.83;0.30;;;9.70;60.90;;;;;;5011450;28;20049;-83
2022/05/03 01:58:51;;;;;;;1.15;0.40;;;9.60;60.90;;;;;;4999570;28;20052;-83
2022/05/03 02:01:37;;;;;;;1.42;0.50;;;9.70;61.10;;;;;;5000439;28;20083;-86
2022/05/03 02:04:07;;;;;;;1.00;0.40;;;9.70;61.10;;;;;;5016411;28;20042;-86
2022/05/03 02:06:55;;;;;;;1.73;0.52;;;9.60;61.20;;;;;;5016225;28;20091;-86
2022/05/03 02:09:30;;;;;;;2.30;0.70;;;9.70;61.30;;;;;;5000029;28;20057;-86
2022/05/03 02:12:07;;;;;;;1.20;0.40;;;9.70;61.40;;;;;;5016151;28;20136;-86
2022/05/03 02:14:45;;;;;;;2.00;0.60;;;9.60;61.40;;;;;;4989340;28;20045;-86
2022/05/03 02:17:33;;;;;;;1.98;0.60;;;9.60;61.50;;;;;;5014787;28;20474;-86
2022/05/03 02:20:37;;;;;;;2.28;0.40;;;9.60;61.70;;;;;;5014389;28;20465;-86
2022/05/03 02:23:35;;;;;;;1.23;0.57;;;9.50;62.40;;;;;;5032720;28;20041;-86
2022/05/03 02:26:50;;;;;;;1.20;0.35;;;9.50;62.00;;;;;;5013726;28;20049;-86
2022/05/03 02:29:35;;;;;;;1.58;0.40;;;9.50;62.10;;;;;;4982658;28;20051;-87
2022/05/03 02:32:04;;;;;;;1.75;0.47;;;9.40;62.20;;;;;;5015401;28;20045;-86
2022/05/03 02:34:59;;;;;;;2.22;0.60;;;9.40;62.30;;;;;;5015361;28;20047;-85
2022/05/03 02:37:48;;;;;;;1.58;0.50;;;9.40;62.40;;;;;;5010765;28;20068;-86
2022/05/03 02:40:20;;;;;;;2.75;0.68;;;9.40;62.50;;;;;;5014822;28;20498;-87
2022/05/03 02:42:50;;;;;;;1.17;0.60;;;9.30;62.50;;;;;;4998588;28;20053;-86
2022/05/03 02:45:18;;;;;;;1.95;0.95;;;9.40;62.60;;;;;;4995918;28;20061;-86
2022/05/03 02:47:58;;;;;;;2.53;0.70;;;9.30;62.70;;;;;;4998828;28;20045;-85
2022/05/03 02:50:35;;;;;;;2.15;0.70;;;9.30;62.90;;;;;;5015360;28;20050;-86
2022/05/03 02:53:07;;;;;;;1.40;0.50;;;9.20;63.00;;;;;;4999562;28;20064;-85
2022/05/03 02:55:54;;;;;;;2.20;0.70;;;9.20;63.10;;;;;;5012498;28;20046;-86
2022/05/03 02:58:42;;;;;;;2.00;0.90;;;9.20;63.30;;;;;;4980280;28;20045;-86
2022/05/03 03:01:49;;;;;;;1.73;0.50;;;9.20;63.30;;;;;;5015227;28;20520;-86
2022/05/03 03:04:50;;;;;;;2.78;0.90;;;9.20;63.50;;;;;;5015059;28;20359;-85
2022/05/03 03:07:19;;;;;;;1.80;0.57;;;9.10;63.60;;;;;;5005558;28;20080;-86
2022/05/03 03:10:05;;;;;;;1.33;0.43;;;9.00;63.60;;;;;;5011736;28;20057;-86
2022/05/03 03:12:52;;;;;;;2.72;1.00;;;9.00;63.70;;;;;;4967616;28;20059;-86
2022/05/03 03:15:28;;;;;;;1.38;0.50;;;9.00;63.90;;;;;;4997657;28;20482;-86
2022/05/03 03:17:58;;;;;;;1.95;0.73;;;9.00;64.00;;;;;;5015318;28;20493;-86
2022/05/03 03:20:28;;;;;;;1.65;0.70;;;9.00;64.10;;;;;;4999460;28;20042;-86
2022/05/03 03:22:56;;;;;;;1.73;0.60;;;9.00;64.10;;;;;;4999544;28;20555;-86
2022/05/03 03:25:23;;;;;;;2.25;0.70;;;8.90;64.10;;;;;;4995664;28;20042;-86
2022/05/03 03:27:57;;;;;;;1.50;0.50;;;9.00;64.30;;;;;;5014036;28;20046;-86
2022/05/03 03:30:24;;;;;;;1.55;0.70;;;8.90;64.40;;;;;;4995776;28;20053;-86
2022/05/03 03:32:57;;;;;;;2.25;0.68;;;8.90;64.50;;;;;;4981692;28;20079;-85
2022/05/03 03:35:25;;;;;;;1.65;0.50;;;8.90;64.70;;;;;;5007557;28;20901;-87
2022/05/03 03:37:57;;;;;;;1.27;0.65;;;8.80;64.70;;;;;;4982789;28;20141;-86
2022/05/03 03:40:26;;;;;;;1.77;0.50;;;8.80;64.90;;;;;;4974564;28;20046;-86
2022/05/03 03:42:54;;;;;;;1.77;0.50;;;8.80;65.00;;;;;;4998843;28;20056;-86
2022/05/03 03:45:21;;;;;;;1.17;0.70;;;8.80;65.10;;;;;;4998041;28;20073;-86
2022/05/03 03:47:49;;;;;;;1.25;0.40;;;8.70;65.20;;;;;;5010531;28;20046;-86
2022/05/03 03:50:16;;;;;;;0.98;0.45;;;8.70;65.30;;;;;;4995181;28;20054;-86
2022/05/03 03:52:44;;;;;;;1.25;0.43;;;8.60;65.40;;;;;;4975364;28;20051;-86
2022/05/03 03:55:12;;;;;;;1.15;0.30;;;8.60;65.50;;;;;;5015768;28;20044;-87
2022/05/03 03:57:40;;;;;;;1.08;0.38;;;8.50;65.60;;;;;;5015070;28;20128;-86
2022/05/03 04:00:13;;;;;;;1.58;0.50;;;8.50;65.70;;;;;;5014980;28;20458;-86
2022/05/03 04:02:42;;;;;;;1.73;0.50;;;8.50;65.80;;;;;;4979641;28;20048;-87
2022/05/03 04:05:19;;;;;;;1.17;0.60;;;8.50;65.90;;;;;;4995228;28;20077;-87
2022/05/03 04:07:47;;;;;;;1.17;0.55;;;8.40;66.00;;;;;;5021323;28;20063;-87
2022/05/03 04:10:15;;;;;;;1.25;0.60;;;8.40;66.00;;;;;;4998559;28;20045;-86
2022/05/03 04:12:42;;;;;;;1.55;0.50;;;8.40;66.20;;;;;;5001074;28;20053;-87
2022/05/03 04:15:10;;;;;;;1.40;0.40;;;8.40;66.30;;;;;;5018293;28;20437;-86
2022/05/03 04:17:42;;;;;;;1.13;0.32;;;8.40;66.30;;;;;;5019297;28;20045;-86
2022/05/03 04:20:18;;;;;;;0.95;0.50;;;8.40;66.40;;;;;;4989472;28;20041;-86
2022/05/03 04:22:46;;;;;;;1.30;0.52;;;8.40;66.50;;;;;;5023514;28;20045;-87
2022/05/03 04:25:13;;;;;;;2.35;0.90;;;8.40;66.60;;;;;;5007611;28;20089;-87
2022/05/03 04:27:40;;;;;;;1.70;0.60;;;8.40;66.60;;;;;;5016386;28;20037;-86
2022/05/03 04:30:08;;;;;;;1.73;0.55;;;8.30;66.70;;;;;;5001999;28;20130;-87
2022/05/03 04:32:35;;;;;;;2.15;0.60;;;8.40;67.00;;;;;;5001758;28;20125;-85
2022/05/03 04:35:05;;;;;;;1.25;0.50;;;8.30;66.90;;;;;;5012749;28;20053;-86
2022/05/03 04:37:32;;;;;;;2.25;0.80;;;8.40;67.10;;;;;;5006698;28;20045;-87
2022/05/03 04:39:59;;;;;;;1.80;0.63;;;8.30;67.00;;;;;;5002546;28;20049;-86
2022/05/03 04:42:27;;;;;;;2.85;0.73;;;8.40;67.10;;;;;;5007747;28;20107;-87
2022/05/03 04:44:54;;;;;;;2.38;1.00;;;8.40;67.10;;;;;;5002649;28;20044;-88
2022/05/03 04:47:21;;;;;;;2.80;0.93;;;8.40;67.10;;;;;;5018696;28;20060;-87
2022/05/03 04:49:49;;;;;;;2.97;0.98;;;8.50;67.20;;;;;;4985988;28;20056;-87
2022/05/03 04:52:17;;;;;;;1.70;0.60;;;8.50;67.20;;;;;;5018202;28;20050;-86
2022/05/03 04:54:46;;;;;;;2.28;0.80;;;8.50;67.20;;;;;;4985718;28;20099;-86
2022/05/03 04:57:15;;;;;;;2.03;0.70;;;8.60;67.20;;;;;;5000758;28;20140;-87
2022/05/03 04:59:42;;;;;;;2.08;0.75;;;8.60;67.30;;;;;;5013732;28;20508;-86
2022/05/03 05:02:10;;;;;;;1.60;0.68;;;8.60;67.30;;;;;;5000942;28;20041;-86
2022/05/03 05:04:37;;;;;;;1.73;0.52;;;8.60;67.30;;;;;;5000843;28;20136;-86
2022/05/03 05:07:04;;;;;;;2.13;0.88;;;8.60;67.30;;;;;;4985275;28;20065;-87
2022/05/03 05:09:32;;;;;;;1.80;0.70;;;8.70;67.40;;;;;;5001341;28;20081;-86
2022/05/03 05:11:59;;;;;;;1.75;0.77;;;8.70;67.40;;;;;;4981557;28;20133;-86
2022/05/03 05:14:26;;;;;;;1.50;0.50;;;8.70;67.90;;;;;;4993880;28;20045;-86
2022/05/03 05:17:03;;;;;;;2.20;1.17;;;8.70;67.40;;;;;;5000402;28;20045;-86
2022/05/03 05:19:30;;;;;;;2.08;0.73;;;8.80;67.40;;;;;;4997172;28;20042;-87
2022/05/03 05:21:57;;;;;;;1.30;0.57;;;8.80;67.30;;;;;;4999424;28;20053;-83
2022/05/03 05:24:24;;;;;;;1.35;0.63;;;8.90;67.40;;;;;;4980539;28;20042;-83
2022/05/03 05:26:51;;;;;;;1.60;1.02;;;8.90;67.30;;;;;;4988113;28;20069;-84
2022/05/03 05:29:19;;;;;;;1.67;0.65;;;9.00;67.30;;;;;;5012965;28;20061;-83
2022/05/03 05:31:46;;;;;;;1.98;0.60;;;9.10;67.30;;;;;;4996962;28;20042;-84
2022/05/03 05:34:13;;;;;;;1.48;0.50;;;9.20;67.20;;;;;;4980200;28;20052;-82
2022/05/03 05:36:40;;;;;;;1.80;0.50;;;9.20;67.20;;;;;;4996859;28;20387;-84
2022/05/03 05:39:07;;;;;;;1.65;0.60;;;9.30;67.10;;;;;;4977544;28;20407;-84
2022/05/03 05:41:34;;;;;;;1.90;0.70;;;9.40;67.00;;;;;;4996674;28;20046;-83
2022/05/03 05:44:03;;;;;;;1.80;0.68;;;9.50;66.90;;;;;;4996894;28;20042;-84
2022/05/03 05:46:30;;;;;;;3.17;0.60;;;9.60;66.80;;;;;;5029261;28;20038;-83
2022/05/03 05:48:58;;;;;;;1.50;0.50;;;9.70;66.70;;;;;;4993962;28;20042;-83
2022/05/03 05:51:25;;;;;;;1.15;0.50;;;9.80;66.40;;;;;;4996108;28;20211;-83
2022/05/03 05:53:52;;;;;;;0.70;0.30;;;9.90;66.20;;;;;;4996984;28;20077;-85
2022/05/03 05:56:19;;;;;;;1.65;0.68;;;10.00;66.00;;;;;;5012667;28;20046;-78
2022/05/03 05:58:46;;;;;;;1.20;0.30;;;10.10;65.70;;;;;;4996381;28;20044;-80
2022/05/03 06:01:23;;;;;;;1.55;0.50;;;10.20;65.40;;;;;;4998661;28;20045;-81
2022/05/03 06:03:50;;;;;;;0.73;0.30;;;10.40;65.10;;;;;;4998548;28;20097;-80
2022/05/03 06:06:17;;;;;;;0.75;0.30;;;10.50;64.80;;;;;;4975765;28;20540;-80
2022/05/03 06:08:46;;;;;;;2.85;0.60;;;10.50;64.50;;;;;;4996259;28;20038;-81
2022/05/03 06:11:13;;;;;;;1.70;0.40;;;10.60;64.20;;;;;;5012106;28;20049;-80
2022/05/03 06:13:43;;;;;;;1.73;0.60;;;10.70;64.00;;;;;;5012947;28;20038;-82
2022/05/03 06:16:11;;;;;;;1.00;0.40;;;10.80;63.70;;;;;;4980129;28;20045;-81
2022/05/03 06:18:38;;;;;;;0.85;0.32;;;10.90;63.50;;;;;;4994095;28;20556;-81
2022/05/03 06:21:07;;;;;;;1.13;0.43;;;11.00;63.30;;;;;;5011973;28;20049;-84
2022/05/03 06:23:36;;;;;;;1.73;0.28;;;11.20;62.90;;;;;;4996634;28;20050;-84
2022/05/03 06:26:09;;;;;;;0.85;0.30;;;11.30;62.70;;;;;;4995652;28;20057;-84
2022/05/03 06:28:45;;;;;;;0.77;0.20;;;11.40;62.40;;;;;;4997237;28;20469;-84
2022/05/03 06:31:12;;;;;;;0.10;0.10;;;11.50;62.20;;;;;;4979933;28;20490;-84
2022/05/03 06:33:39;;;;;;;0.22;0.10;;;11.60;61.90;;;;;;4995890;28;20038;-80
2022/05/03 06:36:11;;;;;;;0.63;0.20;;;11.70;61.60;;;;;;4995701;28;20038;-81
2022/05/03 06:38:38;;;;;;;1.27;0.20;;;11.70;61.20;;;;;;4995410;28;20042;-81
2022/05/03 06:41:06;;;;;;;0.70;0.25;;;11.90;61.00;;;;;;4977284;28;20457;-80
2022/05/03 06:43:33;;;;;;;0.43;0.20;;;12.00;60.70;;;;;;4979321;28;20053;-81
2022/05/03 06:46:00;;;;;;;0.90;0.30;;;12.00;60.50;;;;;;5008331;28;20057;-81
2022/05/03 06:48:27;;;;;;;2.17;0.38;;;12.20;60.40;;;;;;4996460;28;20054;-86
2022/05/03 06:50:54;;;;;;;2.45;0.20;;;12.30;60.20;;;;;;4979946;28;20045;-86
2022/05/03 06:53:21;;;;;;;0.77;0.40;;;12.30;60.00;;;;;;4987141;28;20050;-86
2022/05/03 06:55:49;;;;;;;0.93;0.30;;;12.50;59.80;;;;;;4980363;28;20049;-87
2022/05/03 06:58:16;;;;;;;0.70;0.40;;;12.50;59.50;;;;;;5014277;28;20167;-87
2022/05/03 07:00:46;;;;;;;0.70;0.40;;;12.70;59.40;;;;;;4997377;28;20045;-86
2022/05/03 07:03:13;;;;;;;2.10;0.30;;;12.70;59.20;;;;;;4979720;28;20058;-89
2022/05/03 07:05:40;;;;;;;0.52;0.25;;;12.80;59.10;;;;;;4995980;28;20527;-89
2022/05/03 07:08:08;;;;;;;0.82;0.30;;;12.90;58.90;;;;;;4993948;28;20133;-86
2022/05/03 07:10:35;;;;;;;1.30;0.40;;;13.00;58.70;;;;;;5005232;28;20054;-87
2022/05/03 07:13:03;;;;;;;1.00;0.57;;;13.10;58.40;;;;;;5007326;28;20112;-86
2022/05/03 07:15:31;;;;;;;2.20;0.40;;;13.20;58.30;;;;;;5012387;28;20041;-86
2022/05/03 07:23:33;;;;;;;1.10;0.50;;;13.40;57.90;;;;;;4980818;28;20046;-83
2022/05/03 07:26:00;;;;;;;1.35;0.50;;;13.40;57.70;;;;;;4991672;28;20077;-83
2022/05/03 07:28:28;;;;;;;0.90;0.40;;;13.40;57.50;;;;;;5007581;28;20042;-87
2022/05/03 07:30:57;;;;;;;1.55;0.55;;;13.50;57.50;;;;;;4969415;28;20046;-89
2022/05/03 07:33:24;;;;;;;0.95;0.45;;;13.60;57.40;;;;;;4995359;28;20050;-86
2022/05/03 07:35:51;;;;;;;1.10;0.60;;;13.70;57.40;;;;;;4978798;28;20061;-88
2022/05/03 07:38:18;;;;;;;2.03;0.70;;;13.80;57.30;;;;;;4995630;28;20057;-88
2022/05/03 07:40:45;;;;;;;2.33;0.90;;;13.90;57.20;;;;;;4994536;28;20144;-88
2022/05/03 07:43:12;;;;;;;2.58;0.85;;;13.90;57.00;;;;;;4995373;28;20144;-88
2022/05/03 07:45:39;;;;;;;2.40;0.70;;;14.00;57.00;;;;;;4978021;28;20050;-88
2022/05/03 07:48:07;;;;;;;2.10;0.82;;;14.10;56.90;;;;;;4981179;28;20049;-88
2022/05/03 07:50:34;;;;;;;2.22;0.82;;;14.20;56.80;;;;;;4983468;28;20398;-87
2022/05/03 07:53:01;;;;;;;3.33;0.80;;;14.30;56.70;;;;;;4976531;28;20069;-88
2022/05/03 07:55:28;;;;;;;3.15;1.02;;;14.30;56.60;;;;;;4988895;28;20499;-88
2022/05/03 07:57:55;;;;;;;1.50;0.60;;;14.40;56.40;;;;;;4976919;28;20050;-86
2022/05/03 08:00:22;;;;;;;3.30;0.90;;;14.50;56.50;;;;;;4983390;28;20049;-87
2022/05/03 08:02:49;;;;;;;1.95;0.80;;;14.60;56.50;;;;;;4983353;28;20120;-87
2022/05/03 08:05:16;;;;;;;3.17;0.90;;;14.70;56.40;;;;;;4980490;28;20387;-87
2022/05/03 08:07:47;;;;;;;2.33;1.10;;;14.80;56.90;;;;;;4974043;28;20528;-87
2022/05/03 08:10:14;;;;;;;1.98;1.00;;;14.90;56.10;;;;;;5005133;28;20100;-87
2022/05/03 08:12:41;;;;;;;2.08;0.98;;;15.00;56.00;;;;;;4979572;28;20038;-88
2022/05/03 08:15:08;;;;;;;2.15;0.73;;;15.10;55.90;;;;;;4977156;28;20050;-88
2022/05/03 08:17:36;;;;;;;3.30;1.25;;;15.20;55.80;;;;;;4990318;28;20046;-89
2022/05/03 08:20:03;;;;;;;3.13;1.48;;;15.20;55.60;;;;;;4998689;28;20054;-88
2022/05/03 08:22:33;;;;;;;2.88;1.25;;;15.30;55.60;;;;;;4982436;28;20045;-87
2022/05/03 08:25:01;;;;;;;2.72;1.50;;;15.30;55.50;;;;;;4999322;28;20534;-88
2022/05/03 08:27:30;;;;;;;3.90;1.83;;;15.30;55.50;;;;;;4999397;28;20050;-89
2022/05/03 08:29:59;;;;;;;2.45;1.58;;;15.40;55.40;;;;;;4998782;28;20069;-91
2022/05/03 08:32:26;;;;;;;3.53;1.90;;;15.40;55.40;;;;;;4997997;28;20406;-83
2022/05/03 08:34:53;;;;;;;4.35;1.48;;;15.40;55.40;;;;;;4998066;28;20514;-83
2022/05/03 08:42:52;;;;;;;2.42;1.10;;;15.80;55.20;;;;;;5012681;28;20049;-85
2022/05/03 08:45:24;;;;;;;2.75;1.50;;;16.00;55.10;;;;;;4997582;28;20042;-80
2022/05/03 08:47:51;;;;;;;4.72;1.48;;;16.10;55.00;;;;;;4978299;28;20053;-80
2022/05/03 08:50:20;;;;;;;4.72;1.75;;;16.20;54.90;;;;;;5003564;28;20459;-80
2022/05/03 08:52:49;;;;;;;3.97;1.98;;;16.20;54.90;;;;;;4978056;28;20399;-80
2022/05/03 08:55:17;;;;;;;4.50;1.75;;;16.10;55.00;;;;;;5029981;28;20061;-82
2022/05/03 08:57:44;;;;;;;3.55;1.50;;;16.20;55.10;;;;;;4997233;28;20099;-81
2022/05/03 09:00:13;;;;;;;2.80;1.48;;;16.30;55.10;;;;;;4981561;28;20465;-81
2022/05/03 09:02:42;;;;;;;4.70;1.80;;;16.50;54.90;;;;;;5015889;28;20141;-81
2022/05/03 09:05:11;;;;;;;3.13;1.48;;;16.50;54.70;;;;;;4991480;28;20545;-81
2022/05/03 09:07:39;;;;;;;2.42;1.20;;;16.40;54.90;;;;;;5001822;28;20045;-80
2022/05/03 09:10:28;;;;;;;3.25;1.48;;;16.20;55.10;;;;;;5014916;28;20397;-80
2022/05/03 09:13:18;;;;;;;3.47;1.23;;;16.10;55.30;;;;;;5014139;28;20098;-80
2022/05/03 09:15:47;;;;;;;2.20;0.93;;;16.10;55.40;;;;;;5000534;28;20146;-80
2022/05/03 09:18:27;;;;;;;3.95;1.05;;;16.30;55.40;;;;;;4993093;28;20046;-80
2022/05/03 09:23:49;;;;;;;3.17;1.30;;;16.60;55.00;;;;;;5019237;28;20056;-80
2022/05/03 09:26:20;;;;;;;2.90;1.35;;;16.70;54.90;;;;;;4977793;28;20057;-80
2022/05/03 09:29:02;;;;;;;2.95;1.38;;;16.80;54.80;;;;;;5007072;28;20128;-79
2022/05/03 09:31:40;;;;;;;3.15;1.23;;;16.90;54.70;;;;;;5022314;28;20045;-81
2022/05/03 09:34:19;;;;;;;2.70;1.27;;;16.90;54.80;;;;;;4992994;28;20085;-81
2022/05/03 09:36:52;;;;;;;2.70;1.25;;;16.90;54.80;;;;;;5006951;28;20070;-82
2022/05/03 09:39:37;;;;;;;2.72;1.23;;;16.90;54.90;;;;;;5032816;28;20053;-84
2022/05/03 09:42:13;;;;;;;2.92;1.25;;;16.80;54.90;;;;;;5013234;28;20430;-83
2022/05/03 09:45:05;;;;;;;4.22;1.50;;;16.90;55.00;;;;;;5012910;28;20442;-83
2022/05/03 09:47:34;;;;;;;5.28;1.75;;;17.00;54.80;;;;;;5000164;28;20058;-83
2022/05/03 09:50:01;;;;;;;4.60;1.90;;;17.10;54.70;;;;;;5012942;28;20488;-83
2022/05/03 09:52:37;;;;;;;4.45;2.33;;;17.30;54.60;;;;;;5013574;28;20037;-83
2022/05/03 09:55:07;;;;;;;3.70;2.00;;;17.40;54.30;;;;;;5000508;28;20044;-83
2022/05/03 09:57:37;;;;;;;3.78;2.10;;;17.50;54.40;;;;;;4996423;28;20058;-83
2022/05/03 10:00:06;;;;;;;4.45;2.10;;;17.60;54.40;;;;;;5004567;28;20135;-82
2022/05/03 10:02:43;;;;;;;5.45;2.40;;;17.50;54.30;;;;;;4992628;28;20056;-83
2022/05/03 10:05:14;;;;;;;4.38;1.98;;;17.50;54.40;;;;;;5005902;28;20049;-82
2022/05/03 10:07:45;;;;;;;3.53;1.85;;;17.70;54.50;;;;;;5008118;28;20160;-83
2022/05/03 10:10:14;;;;;;;3.03;1.52;;;17.90;54.20;;;;;;5010585;28;20140;-80
2022/05/03 10:12:47;;;;;;;3.83;2.17;;;18.10;53.90;;;;;;4995191;28;20042;-80
2022/05/03 10:21:47;;;;;;;4.18;2.03;;;18.60;53.50;;;;;;4951360;29;20048;-81
2022/05/03 10:24:17;;;;;;;6.60;2.33;;;18.80;53.30;;;;;;4976203;28;20053;-83
2022/05/03 10:26:56;;;;;;;3.92;1.83;;;18.90;53.00;;;;;;4992156;28;20384;-80
2022/05/03 10:29:25;;;;;;;3.72;1.80;;;19.00;53.00;;;;;;4993453;28;20070;-80
2022/05/03 10:32:06;;;;;;;3.20;1.75;;;19.00;53.00;;;;;;4992167;28;20038;-80
2022/05/03 10:34:40;;;;;;;5.80;1.98;;;19.00;52.80;;;;;;4992156;28;20038;-81
2022/05/03 10:37:08;;;;;;;4.22;2.20;;;18.70;53.10;;;;;;4996053;28;20410;-80
2022/05/03 10:40:04;;;;;;;5.90;2.72;;;18.50;53.40;;;;;;5008149;28;20042;-82
2022/05/03 10:42:31;;;;;;;4.95;2.40;;;18.30;53.50;;;;;;4985216;28;20046;-81
2022/05/03 10:45:05;;;;;;;3.70;2.10;;;18.20;53.80;;;;;;4993085;28;20121;-80
2022/05/03 10:47:54;;;;;;;3.30;1.95;;;18.10;53.90;;;;;;4975473;28;20376;-80
2022/05/03 10:50:36;;;;;;;3.35;1.88;;;18.10;54.00;;;;;;4986093;28;20054;-80
2022/05/03 10:53:05;;;;;;;3.63;2.00;;;18.10;53.90;;;;;;4991836;28;20487;-80
2022/05/03 10:55:33;;;;;;;3.70;1.90;;;18.10;53.90;;;;;;5001395;28;20043;-81
2022/05/03 10:58:20;;;;;;;3.67;1.42;;;18.20;53.80;;;;;;4988461;28;20498;-81
2022/05/03 11:01:10;;;;;;;3.08;1.27;;;18.20;53.60;;;;;;4988155;28;20050;-81
2022/05/03 11:04:01;;;;;;;2.50;1.33;;;18.30;53.40;;;;;;4979456;28;20042;-81
2022/05/03 11:06:29;;;;;;;3.90;1.67;;;18.60;53.00;;;;;;4971428;28;20153;-81
2022/05/03 11:14:24;;;;;;;3.75;1.55;;;19.10;52.30;;;;;;4993286;28;20050;-85
2022/05/03 11:17:05;;;;;;;2.80;1.05;;;19.90;51.00;;;;;;4991380;28;20065;-85
2022/05/03 11:19:37;;;;;;;1.88;0.80;;;20.80;49.70;;;;;;5002458;28;20046;-85
2022/05/03 11:22:12;;;;;;;3.57;1.53;;;21.50;48.80;;;;;;5000612;28;20478;-85
2022/05/03 11:24:45;;;;;;;2.75;1.33;;;21.50;48.20;;;;;;4998230;28;20380;-83
2022/05/03 11:27:14;;;;;;;3.10;1.50;;;21.40;48.50;;;;;;5011250;28;20054;-83
2022/05/03 11:29:43;;;;;;;2.05;1.10;;;21.00;48.80;;;;;;4997027;28;20058;-83
2022/05/03 11:32:10;;;;;;;5.43;1.40;;;20.50;49.30;;;;;;4996738;28;20053;-84
2022/05/03 11:34:38;;;;;;;3.25;1.15;;;20.00;49.50;;;;;;5001820;28;20049;-83
2022/05/03 11:37:07;;;;;;;2.53;1.10;;;19.50;50.20;;;;;;5017281;28;20077;-83
2022/05/03 11:39:38;;;;;;;2.63;0.88;;;19.30;50.80;;;;;;5017204;28;20046;-84
2022/05/03 11:42:09;;;;;;;1.80;0.70;;;19.10;51.10;;;;;;5001038;28;20046;-83
2022/05/03 11:44:43;;;;;;;2.25;0.95;;;19.00;51.30;;;;;;5001955;28;20038;-84
2022/05/03 11:47:14;;;;;;;3.30;1.65;;;18.90;51.50;;;;;;4985986;28;20448;-83
2022/05/03 11:49:43;;;;;;;3.35;1.40;;;18.90;51.60;;;;;;4997266;28;20038;-84
2022/05/03 11:57:41;;;;;;;3.08;1.63;;;19.90;50.80;;;;;;5003458;28;20087;-83
2022/05/03 12:00:13;;;;;;;3.05;1.67;;;20.70;49.70;;;;;;4997851;28;20132;-83
2022/05/03 12:02:45;;;;;;;2.65;1.23;;;21.70;48.50;;;;;;4997099;28;20042;-87
2022/05/03 12:05:20;;;;;;;3.17;1.35;;;22.50;47.50;;;;;;5004813;28;20042;-86
2022/05/03 12:07:54;;;;;;;3.13;1.38;;;23.10;46.90;;;;;;4985143;28;20137;-85
2022/05/03 12:10:29;;;;;;;3.05;1.50;;;22.80;46.80;;;;;;4998514;28;20074;-86
2022/05/03 12:13:14;;;;;;;3.00;1.55;;;21.90;47.90;;;;;;5011877;28;20042;-85
2022/05/03 12:15:47;;;;;;;2.97;1.42;;;20.90;49.20;;;;;;5006457;28;20050;-87
2022/05/03 12:18:20;;;;;;;3.38;1.60;;;20.20;50.20;;;;;;5018557;28;20059;-86
2022/05/03 12:21:01;;;;;;;2.65;1.10;;;19.70;51.60;;;;;;4985434;28;20786;-86
2022/05/03 12:23:34;;;;;;;2.80;1.50;;;19.20;51.70;;;;;;5017747;28;20033;-84
2022/05/03 12:26:19;;;;;;;3.53;1.70;;;18.80;52.20;;;;;;5001319;28;20050;-88
2022/05/03 12:28:51;;;;;;;2.85;1.30;;;18.50;52.60;;;;;;4989581;28;20103;-87
2022/05/03 12:31:19;;;;;;;4.65;2.00;;;18.20;52.90;;;;;;5001199;28;20049;-85
2022/05/03 12:33:52;;;;;;;5.00;2.65;;;18.10;53.20;;;;;;4998340;28;20049;-91
2022/05/03 12:36:45;;;;;;;;;;;17.90;53.60;;;;;;5014991;28;20053;-92
2022/05/03 12:39:21;;;;;;;4.60;2.03;;;17.60;53.70;;;;;;5031191;28;19921;-84
2022/05/03 12:42:18;;;;;;;4.28;2.15;;;17.50;54.00;;;;;;4991400;28;20053;-87
2022/05/03 12:44:54;;;;;;;4.63;2.15;;;17.40;54.10;;;;;;4996045;28;20046;-87
2022/05/03 12:47:24;;;;;;;3.65;1.75;;;17.30;54.20;;;;;;4978369;28;20050;-86
2022/05/03 12:49:51;;;;;;;3.47;1.80;;;17.20;54.20;;;;;;4985144;28;20042;-86
2022/05/03 12:52:19;;;;;;;4.53;2.17;;;17.20;54.30;;;;;;4989838;28;20053;-86
2022/05/03 12:54:50;;;;;;;4.40;1.90;;;17.10;54.40;;;;;;4982429;28;20552;-88
2022/05/03 13:00:04;;;;;;;3.67;1.90;;;17.00;54.70;;;;;;4988038;28;20069;-88
2022/05/03 13:02:31;;;;;;;4.88;2.72;;;16.90;54.70;;;;;;4989800;28;20077;-87
2022/05/03 13:04:58;;;;;;;7.20;4.25;;;16.90;54.90;;;;;;4993961;28;20073;-88
2022/05/03 13:07:25;;;;;;;9.98;4.65;;;16.80;55.40;;;;;;4986640;28;20381;-88
2022/05/03 13:09:53;;;;;;;9.70;4.82;;;16.70;55.90;;;;;;4997783;28;20057;-89
2022/05/03 13:12:22;;;;;;;11.73;5.15;;;16.60;56.30;;;;;;4995127;28;20145;-88
2022/05/03 13:14:49;;;;;;;14.10;6.97;;;16.50;56.90;;;;;;5014049;28;20049;-90
2022/05/03 13:17:19;;;;;;;13.82;6.90;;;16.30;57.70;;;;;;4979112;28;20053;-90
2022/05/03 13:19:47;;;;;;;17.58;9.13;;;16.20;58.00;;;;;;5009088;28;20050;-87
2022/05/03 13:22:16;;;;;;;13.57;6.60;;;16.10;58.90;;;;;;4986325;28;20060;-86
2022/05/03 13:24:43;;;;;;;16.13;7.55;;;16.00;59.00;;;;;;5017587;28;20045;-87
2022/05/03 13:27:10;;;;;;;15.48;7.78;;;15.90;59.30;;;;;;5017622;28;20549;-86
2022/05/03 13:29:37;;;;;;;18.05;8.45;;;15.80;59.70;;;;;;5003733;28;20124;-84
2022/05/03 13:32:06;;;;;;;15.13;7.70;;;15.70;60.20;;;;;;5027858;28;20050;-82
2022/05/03 13:34:33;;;;;;;14.30;8.25;;;15.70;60.30;;;;;;4999669;28;20041;-85
2022/05/03 13:42:31;;;;;;;18.48;8.82;;;15.50;61.00;;;;;;5000151;28;20042;-83
2022/05/03 13:44:59;;;;;;;14.63;8.02;;;15.50;61.60;;;;;;4995668;28;20045;-86
2022/05/03 13:47:26;;;;;;;13.20;7.22;;;15.50;61.60;;;;;;4993592;28;20134;-85
2022/05/03 13:49:53;;;;;;;17.52;8.98;;;15.50;61.90;;;;;;4980142;28;20045;-86
2022/05/03 13:52:21;;;;;;;15.02;7.68;;;15.40;62.10;;;;;;5013575;28;20509;-84
2022/05/03 13:54:50;;;;;;;15.82;7.32;;;15.40;62.20;;;;;;4980154;28;20156;-82
2022/05/03 13:57:17;;;;;;;16.55;7.97;;;15.40;62.30;;;;;;4992269;28;20118;-82
2022/05/03 13:59:44;;;;;;;15.43;6.60;;;15.40;62.40;;;;;;5008362;28;20179;-81